createdAt,value
2018-12-19T00:00:38.878Z,-434.04
2018-12-19T00:01:38.985Z,-432.43
2018-12-19T00:02:39.078Z,-435.15
2018-12-19T00:03:39.211Z,-433.47
2018-12-19T00:04:39.217Z,-433.03
2018-12-19T00:05:39.529Z,-434.03
2018-12-19T00:06:39.374Z,-434.33
2018-12-19T00:07:39.471Z,-433.92
2018-12-19T00:08:39.579Z,-432.04
2018-12-19T00:09:39.649Z,-431.77
2018-12-19T00:10:39.706Z,-435.19
2018-12-19T00:11:39.865Z,-432.02
2018-12-19T00:12:39.862Z,-433.97
2018-12-19T00:13:39.981Z,-434.37
2018-12-19T00:14:40.053Z,-431.41
2018-12-19T00:15:40.120Z,-433.28
2018-12-19T00:16:40.213Z,-434.36
2018-12-19T00:17:40.274Z,-433.30
2018-12-19T00:18:40.352Z,-433.30
2018-12-19T00:19:40.458Z,-434.32
2018-12-19T00:20:40.594Z,-432.86
2018-12-19T00:21:40.603Z,-432.41
2018-12-19T00:22:40.667Z,-434.03
2018-12-19T00:23:40.740Z,-434.34
2018-12-19T00:24:40.833Z,-433.50
2018-12-19T00:25:40.912Z,-431.08
2018-12-19T00:26:41.005Z,-433.21
2018-12-19T00:27:41.066Z,-433.47
2018-12-19T00:28:41.253Z,-435.84
2018-12-19T00:29:41.250Z,-432.63
2018-12-19T00:30:41.306Z,-433.84
2018-12-19T00:31:41.404Z,-434.46
2018-12-19T00:32:41.472Z,-431.92
2018-12-19T00:33:41.567Z,-432.27
2018-12-19T00:34:41.624Z,-433.44
2018-12-19T00:35:41.707Z,-431.83
2018-12-19T00:36:41.870Z,-432.63
2018-12-19T00:37:41.859Z,-434.03
2018-12-19T00:38:41.952Z,-433.05
2018-12-19T00:39:42.016Z,-436.49
2018-12-19T00:40:42.092Z,-433.01
2018-12-19T00:41:42.199Z,-433.74
2018-12-19T00:42:42.261Z,-433.32
2018-12-19T00:43:42.355Z,-433.72
2018-12-19T00:44:42.506Z,-434.80
2018-12-19T00:45:42.459Z,-435.18
2018-12-19T00:46:42.579Z,-431.03
2018-12-19T00:47:42.655Z,-434.60
2018-12-19T00:48:42.742Z,-432.62
2018-12-19T00:49:42.820Z,-434.44
2018-12-19T00:50:42.886Z,-435.12
2018-12-19T00:51:42.986Z,-435.18
2018-12-19T00:52:43.071Z,-435.89
2018-12-19T00:53:43.175Z,-432.80
2018-12-19T00:54:43.209Z,-431.77
2018-12-19T00:55:43.274Z,-435.12
2018-12-19T00:56:43.369Z,-432.74
2018-12-19T00:57:43.397Z,-432.47
2018-12-19T00:58:43.506Z,-433.39
2018-12-19T00:59:43.602Z,-430.04
2018-12-19T01:00:43.670Z,-430.35
2018-12-19T01:01:43.880Z,-432.68
2018-12-19T01:02:43.812Z,-430.67
2018-12-19T01:03:43.890Z,-430.09
2018-12-19T01:04:48.076Z,-430.49
2018-12-19T01:05:44.061Z,-429.13
2018-12-19T01:06:44.157Z,-433.51
2018-12-19T01:07:44.201Z,-431.65
2018-12-19T01:08:44.276Z,-431.43
2018-12-19T01:09:44.526Z,-432.22
2018-12-19T01:10:44.467Z,-431.78
2018-12-19T01:11:44.564Z,-433.19
2018-12-19T01:12:44.610Z,-430.98
2018-12-19T01:13:44.695Z,-431.79
2018-12-19T01:14:44.830Z,-430.86
2018-12-19T01:15:44.872Z,-431.65
2018-12-19T01:16:44.966Z,-431.27
2018-12-19T01:17:45.086Z,-429.47
2018-12-19T01:18:45.074Z,-433.78
2018-12-19T01:19:45.205Z,-428.57
2018-12-19T01:20:45.249Z,-429.52
2018-12-19T01:21:45.346Z,-431.54
2018-12-19T01:22:45.404Z,-428.77
2018-12-19T01:23:45.480Z,-432.59
2018-12-19T01:24:45.578Z,-433.10
2018-12-19T01:25:45.681Z,-431.84
2018-12-19T01:26:45.715Z,-430.53
2018-12-19T01:27:45.780Z,-427.88
2018-12-19T01:28:45.858Z,-434.63
2018-12-19T01:29:45.978Z,-431.75
2018-12-19T01:30:46.019Z,-432.43
2018-12-19T01:31:46.115Z,-432.08
2018-12-19T01:32:46.178Z,-433.44
2018-12-19T01:33:46.269Z,-434.58
2018-12-19T01:34:46.435Z,-432.62
2018-12-19T01:35:46.407Z,-434.04
2018-12-19T01:36:46.493Z,-435.60
2018-12-19T01:37:46.559Z,-436.21
2018-12-19T01:38:46.661Z,-435.07
2018-12-19T01:39:46.733Z,-435.42
2018-12-19T01:40:46.810Z,-434.11
2018-12-19T01:41:46.875Z,-432.81
2018-12-19T01:42:47.044Z,-433.74
2018-12-19T01:43:47.254Z,-432.54
2018-12-19T01:44:47.115Z,-433.22
2018-12-19T01:45:47.203Z,-429.81
2018-12-19T01:46:47.257Z,-429.17
2018-12-19T01:47:47.336Z,-430.09
2018-12-19T01:48:47.411Z,-429.22
2018-12-19T01:49:47.513Z,-427.46
2018-12-19T01:50:47.660Z,-429.88
2018-12-19T01:51:47.637Z,-430.63
2018-12-19T01:52:47.720Z,-431.33
2018-12-19T01:53:47.814Z,-429.10
2018-12-19T01:54:47.906Z,-427.78
2018-12-19T01:55:47.982Z,-428.75
2018-12-19T01:56:48.062Z,-431.26
2018-12-19T01:57:48.148Z,-432.10
2018-12-19T01:58:48.239Z,-429.77
2018-12-19T01:59:48.273Z,-427.38
2018-12-19T02:00:48.368Z,-430.67
2018-12-19T02:01:48.446Z,-430.24
2018-12-19T02:02:48.500Z,-427.55
2018-12-19T02:03:48.554Z,-430.48
2018-12-19T02:04:48.660Z,-432.26
2018-12-19T02:05:48.753Z,-431.07
2018-12-19T02:06:48.866Z,-430.13
2018-12-19T02:07:48.904Z,-431.64
2018-12-19T02:08:48.959Z,-431.60
2018-12-19T02:09:49.052Z,-431.13
2018-12-19T02:10:49.145Z,-434.18
2018-12-19T02:11:49.206Z,-434.71
2018-12-19T02:12:49.291Z,-434.78
2018-12-19T02:13:49.377Z,-430.85
2018-12-19T02:14:49.487Z,-429.47
2018-12-19T02:15:49.632Z,-433.47
2018-12-19T02:16:49.610Z,-432.10
2018-12-19T02:17:49.705Z,-427.77
2018-12-19T02:18:49.761Z,-430.92
2018-12-19T02:19:49.857Z,-435.45
2018-12-19T02:20:49.922Z,-434.37
2018-12-19T02:21:49.996Z,-435.99
2018-12-19T02:22:50.088Z,-434.24
2018-12-19T02:23:50.253Z,-431.70
2018-12-19T02:24:50.224Z,-433.68
2018-12-19T02:25:50.304Z,-433.31
2018-12-19T02:26:50.388Z,-436.06
2018-12-19T02:27:50.483Z,-434.71
2018-12-19T02:28:50.541Z,-432.65
2018-12-19T02:29:50.641Z,-436.38
2018-12-19T02:30:50.713Z,-437.00
2018-12-19T02:31:50.849Z,-434.54
2018-12-19T02:32:50.854Z,-438.24
2018-12-19T02:33:50.920Z,-436.39
2018-12-19T02:34:51.023Z,-434.92
2018-12-19T02:35:51.085Z,-435.57
2018-12-19T02:36:51.139Z,-434.03
2018-12-19T02:37:51.226Z,-437.14
2018-12-19T02:38:51.307Z,-435.49
2018-12-19T02:39:51.452Z,-435.05
2018-12-19T02:40:51.462Z,-435.14
2018-12-19T02:41:51.524Z,-435.92
2018-12-19T02:42:51.601Z,-436.52
2018-12-19T02:43:51.668Z,-433.46
2018-12-19T02:44:51.792Z,-434.46
2018-12-19T02:45:51.866Z,-436.58
2018-12-19T02:46:51.935Z,-435.59
2018-12-19T02:47:52.047Z,-435.91
2018-12-19T02:48:52.127Z,-459.31
2018-12-19T02:49:52.179Z,-459.33
2018-12-19T02:50:52.232Z,-460.79
2018-12-19T02:51:52.325Z,-460.82
2018-12-19T02:52:52.410Z,-459.65
2018-12-19T02:53:52.453Z,-460.29
2018-12-19T02:54:52.550Z,-459.92
2018-12-19T02:55:52.634Z,-462.34
2018-12-19T02:56:52.811Z,-459.54
2018-12-19T02:57:52.794Z,-461.10
2018-12-19T02:58:52.838Z,-458.78
2018-12-19T02:59:52.947Z,-460.10
2018-12-19T03:00:53.016Z,-459.60
2018-12-19T03:01:53.112Z,-460.67
2018-12-19T03:02:53.195Z,-459.10
2018-12-19T03:03:53.257Z,-462.15
2018-12-19T03:04:53.469Z,-460.98
2018-12-19T03:05:53.414Z,-461.67
2018-12-19T03:06:53.495Z,-458.63
2018-12-19T03:07:53.573Z,-460.35
2018-12-19T03:08:53.639Z,-455.61
2018-12-19T03:09:53.707Z,-458.48
2018-12-19T03:10:53.778Z,-460.63
2018-12-19T03:11:53.897Z,-457.71
2018-12-19T03:12:54.004Z,-458.97
2018-12-19T03:13:54.023Z,-457.84
2018-12-19T03:14:54.106Z,-458.41
2018-12-19T03:15:54.188Z,-459.62
2018-12-19T03:16:54.298Z,-458.14
2018-12-19T03:17:54.375Z,-456.69
2018-12-19T03:18:54.437Z,-457.11
2018-12-19T03:19:54.510Z,-458.38
2018-12-19T03:20:54.664Z,-457.17
2018-12-19T03:21:54.655Z,-457.63
2018-12-19T03:22:54.997Z,-459.53
2018-12-19T03:23:54.837Z,-461.48
2018-12-19T03:24:54.910Z,-460.81
2018-12-19T03:25:55.008Z,-457.66
2018-12-19T03:26:55.090Z,-459.50
2018-12-19T03:27:55.149Z,-458.71
2018-12-19T03:28:55.243Z,-458.16
2018-12-19T03:29:55.447Z,-457.74
2018-12-19T03:30:55.426Z,-459.17
2018-12-19T03:31:55.470Z,-459.60
2018-12-19T03:32:55.552Z,-458.20
2018-12-19T03:33:55.624Z,-458.44
2018-12-19T03:34:55.715Z,-460.68
2018-12-19T03:35:55.828Z,-458.77
2018-12-19T03:36:55.876Z,-459.01
2018-12-19T03:37:56.049Z,-458.59
2018-12-19T03:38:56.027Z,-457.95
2018-12-19T03:39:56.097Z,-459.62
2018-12-19T03:40:56.204Z,-458.49
2018-12-19T03:41:56.259Z,-459.26
2018-12-19T03:42:56.370Z,-458.75
2018-12-19T03:43:56.407Z,-459.74
2018-12-19T03:44:56.492Z,-457.36
2018-12-19T03:45:56.697Z,-457.50
2018-12-19T03:46:56.652Z,-458.90
2018-12-19T03:47:56.771Z,-455.66
2018-12-19T03:48:56.799Z,-458.56
2018-12-19T03:49:56.893Z,-458.58
2018-12-19T03:50:57.008Z,-455.73
2018-12-19T03:51:57.060Z,-456.82
2018-12-19T03:52:57.167Z,-457.56
2018-12-19T03:53:57.241Z,-456.17
2018-12-19T03:54:57.257Z,-456.02
2018-12-19T03:55:57.375Z,-457.90
2018-12-19T03:56:57.455Z,-457.19
2018-12-19T03:57:57.554Z,-457.47
2018-12-19T03:58:57.602Z,-457.04
2018-12-19T03:59:57.688Z,-456.36
2018-12-19T04:00:57.779Z,-455.84
2018-12-19T04:01:57.861Z,-459.99
2018-12-19T04:02:57.988Z,-459.51
2018-12-19T04:03:58.000Z,-458.99
2018-12-19T04:04:58.068Z,-459.25
2018-12-19T04:05:58.190Z,-457.98
2018-12-19T04:06:58.204Z,-459.49
2018-12-19T04:07:58.341Z,-459.83
2018-12-19T04:08:58.389Z,-459.78
2018-12-19T04:09:58.483Z,-458.36
2018-12-19T04:10:58.678Z,-460.73
2018-12-19T04:11:58.607Z,-458.82
2018-12-19T04:12:58.713Z,-457.83
2018-12-19T04:13:58.777Z,-456.34
2018-12-19T04:14:58.853Z,-458.31
2018-12-19T04:15:58.950Z,-455.04
2018-12-19T04:16:59.008Z,-456.42
2018-12-19T04:17:59.091Z,-458.45
2018-12-19T04:18:59.293Z,-457.42
2018-12-19T04:19:59.285Z,-458.16
2018-12-19T04:20:59.348Z,-455.60
2018-12-19T04:21:59.406Z,-457.65
2018-12-19T04:22:59.499Z,-457.02
2018-12-19T04:23:59.615Z,-457.94
2018-12-19T04:24:59.707Z,-458.94
2018-12-19T04:25:59.787Z,-458.57
2018-12-19T04:26:59.912Z,-458.61
2018-12-19T04:27:59.889Z,-457.42
2018-12-19T04:29:00.001Z,-457.42
2018-12-19T04:30:00.092Z,-456.32
2018-12-19T04:31:00.160Z,-456.18
2018-12-19T04:32:00.218Z,-452.82
2018-12-19T04:33:00.299Z,-452.50
2018-12-19T04:34:00.378Z,-455.88
2018-12-19T04:35:00.517Z,-458.07
2018-12-19T04:36:00.540Z,-457.49
2018-12-19T04:37:00.605Z,-455.60
2018-12-19T04:38:00.715Z,-454.20
2018-12-19T04:39:00.802Z,-455.07
2018-12-19T04:40:05.380Z,-451.77
2018-12-19T04:41:01.945Z,-450.27
2018-12-19T04:42:01.010Z,-453.00
2018-12-19T04:43:01.161Z,-454.29
2018-12-19T04:44:01.275Z,-454.69
2018-12-19T04:45:01.283Z,-457.16
2018-12-19T04:46:01.347Z,-454.70
2018-12-19T04:47:01.431Z,-457.28
2018-12-19T04:48:01.569Z,-454.67
2018-12-19T04:49:01.597Z,-455.86
2018-12-19T04:50:01.662Z,-456.36
2018-12-19T04:51:01.744Z,-455.31
2018-12-19T04:52:01.923Z,-454.58
2018-12-19T04:53:01.886Z,-457.99
2018-12-19T04:54:02.004Z,-454.43
2018-12-19T04:55:02.065Z,-457.28
2018-12-19T04:56:02.118Z,-456.54
2018-12-19T04:57:02.191Z,-455.14
2018-12-19T04:58:02.287Z,-451.71
2018-12-19T04:59:02.615Z,-454.07
2018-12-19T05:00:02.665Z,-455.44
2018-12-19T05:01:02.508Z,-455.22
2018-12-19T05:02:02.593Z,-455.43
2018-12-19T05:03:02.681Z,-456.03
2018-12-19T05:04:02.785Z,-456.97
2018-12-19T05:05:02.855Z,-456.50
2018-12-19T05:06:02.937Z,-456.62
2018-12-19T05:07:02.980Z,-455.80
2018-12-19T05:08:03.118Z,-455.93
2018-12-19T05:09:03.151Z,-457.32
2018-12-19T05:10:03.246Z,-454.96
2018-12-19T05:11:03.313Z,-456.76
2018-12-19T05:12:03.385Z,-457.09
2018-12-19T05:13:03.437Z,-455.28
2018-12-19T05:14:03.555Z,-456.04
2018-12-19T05:15:03.656Z,-453.87
2018-12-19T05:16:03.802Z,-453.70
2018-12-19T05:17:03.756Z,-455.10
2018-12-19T05:18:03.842Z,-453.11
2018-12-19T05:19:03.928Z,-454.94
2018-12-19T05:20:04.063Z,-456.96
2018-12-19T05:21:04.102Z,-457.45
2018-12-19T05:22:04.182Z,-457.37
2018-12-19T05:23:04.258Z,-455.11
2018-12-19T05:24:04.376Z,-455.09
2018-12-19T05:25:04.497Z,-455.25
2018-12-19T05:26:04.502Z,-454.41
2018-12-19T05:27:04.581Z,-453.42
2018-12-19T05:28:04.663Z,-457.63
2018-12-19T05:29:04.759Z,-455.44
2018-12-19T05:30:04.822Z,-452.18
2018-12-19T05:31:04.913Z,-456.89
2018-12-19T05:32:05.017Z,-454.97
2018-12-19T05:33:05.227Z,-452.68
2018-12-19T05:34:05.168Z,-453.45
2018-12-19T05:35:05.213Z,-455.67
2018-12-19T05:36:05.316Z,-453.41
2018-12-19T05:37:05.395Z,-451.53
2018-12-19T05:38:05.460Z,-450.63
2018-12-19T05:39:05.556Z,-452.70
2018-12-19T05:40:05.622Z,-457.32
2018-12-19T05:41:05.767Z,-457.32
2018-12-19T05:42:05.793Z,-457.52
2018-12-19T05:43:05.857Z,-458.67
2018-12-19T05:44:05.919Z,-456.68
2018-12-19T05:45:06.000Z,-455.98
2018-12-19T05:46:06.069Z,-457.52
2018-12-19T05:47:06.254Z,-458.09
2018-12-19T05:48:06.246Z,-457.13
2018-12-19T05:49:06.428Z,-455.71
2018-12-19T05:50:06.413Z,-457.95
2018-12-19T05:51:06.467Z,-457.44
2018-12-19T05:52:06.547Z,-459.29
2018-12-19T05:53:06.630Z,-458.03
2018-12-19T05:54:06.740Z,-454.51
2018-12-19T05:55:06.807Z,-454.04
2018-12-19T05:56:06.886Z,-453.26
2018-12-19T05:57:06.990Z,-453.65
2018-12-19T05:58:06.998Z,-455.34
2018-12-19T05:59:07.126Z,-451.87
2018-12-19T06:00:07.184Z,-453.93
2018-12-19T06:01:07.280Z,-432.95
2018-12-19T06:02:07.355Z,-430.44
2018-12-19T06:03:07.417Z,-429.99
2018-12-19T06:04:07.498Z,-429.13
2018-12-19T06:05:07.715Z,-430.13
2018-12-19T06:06:07.772Z,-427.34
2018-12-19T06:07:07.733Z,-428.14
2018-12-19T06:08:07.777Z,-425.60
2018-12-19T06:09:07.870Z,-428.42
2018-12-19T06:10:07.946Z,-430.87
2018-12-19T06:11:08.036Z,-434.56
2018-12-19T06:12:08.117Z,-434.18
2018-12-19T06:13:08.180Z,-434.17
2018-12-19T06:14:08.377Z,-433.12
2018-12-19T06:15:08.323Z,-432.72
2018-12-19T06:16:08.412Z,-433.31
2018-12-19T06:17:08.497Z,-432.41
2018-12-19T06:18:08.564Z,-430.06
2018-12-19T06:19:08.649Z,-432.19
2018-12-19T06:20:08.697Z,-433.87
2018-12-19T06:21:08.809Z,-433.74
2018-12-19T06:22:08.955Z,-432.81
2018-12-19T06:23:08.924Z,-430.72
2018-12-19T06:24:09.044Z,-454.59
2018-12-19T06:25:09.071Z,-456.40
2018-12-19T06:26:09.182Z,-457.40
2018-12-19T06:27:09.342Z,-453.81
2018-12-19T06:28:09.337Z,-455.74
2018-12-19T06:29:09.429Z,-458.00
2018-12-19T06:30:09.517Z,-456.54
2018-12-19T06:31:09.549Z,-451.91
2018-12-19T06:32:09.649Z,-455.80
2018-12-19T06:33:09.705Z,-430.32
2018-12-19T06:34:09.780Z,-432.00
2018-12-19T06:35:09.859Z,-434.83
2018-12-19T06:36:10.179Z,-430.22
2018-12-19T06:37:10.037Z,-431.87
2018-12-19T06:38:10.118Z,-427.56
2018-12-19T06:39:10.203Z,-428.06
2018-12-19T06:40:10.268Z,-430.96
2018-12-19T06:41:10.362Z,-427.80
2018-12-19T06:42:10.457Z,-428.98
2018-12-19T06:43:10.480Z,-428.79
2018-12-19T06:44:10.568Z,-430.17
2018-12-19T06:45:10.671Z,-426.12
2018-12-19T06:46:10.775Z,-429.77
2018-12-19T06:47:10.948Z,-427.53
2018-12-19T06:48:10.898Z,-431.97
2018-12-19T06:49:10.993Z,-430.70
2018-12-19T06:50:11.088Z,-425.72
2018-12-19T06:51:11.163Z,-426.87
2018-12-19T06:52:11.254Z,-425.41
2018-12-19T06:53:11.297Z,-429.14
2018-12-19T06:54:11.362Z,-424.82
2018-12-19T06:55:11.571Z,-425.26
2018-12-19T06:56:11.528Z,-429.54
2018-12-19T06:57:11.647Z,-429.75
2018-12-19T06:58:11.671Z,-431.00
2018-12-19T06:59:11.765Z,-431.00
2018-12-19T07:00:11.878Z,-428.46
2018-12-19T07:01:11.932Z,-426.07
2018-12-19T07:02:12.047Z,-425.81
2018-12-19T07:03:12.127Z,-428.46
2018-12-19T07:04:12.134Z,-427.58
2018-12-19T07:05:12.249Z,-428.66
2018-12-19T07:06:12.311Z,-424.63
2018-12-19T07:07:12.425Z,-425.75
2018-12-19T07:08:12.465Z,-426.37
2018-12-19T07:09:12.543Z,-428.04
2018-12-19T07:10:12.620Z,-427.33
2018-12-19T07:11:12.736Z,-422.12
2018-12-19T07:12:12.798Z,-425.11
2018-12-19T07:13:12.837Z,-425.62
2018-12-19T07:14:12.917Z,-424.43
2018-12-19T07:15:13.028Z,-425.97
2018-12-19T07:16:13.061Z,-424.87
2018-12-19T07:17:13.191Z,-420.52
2018-12-19T07:18:13.238Z,-422.03
2018-12-19T07:19:13.328Z,-426.85
2018-12-19T07:20:13.482Z,-429.11
2018-12-19T07:21:13.446Z,-429.95
2018-12-19T07:22:13.575Z,-431.42
2018-12-19T07:23:13.616Z,-451.02
2018-12-19T07:24:13.694Z,-451.71
2018-12-19T07:25:13.789Z,-454.10
2018-12-19T07:26:13.845Z,-452.18
2018-12-19T07:27:13.956Z,-453.99
2018-12-19T07:28:14.072Z,-453.79
2018-12-19T07:29:14.079Z,-455.14
2018-12-19T07:30:14.170Z,-454.29
2018-12-19T07:31:14.233Z,-450.69
2018-12-19T07:32:14.326Z,-451.25
2018-12-19T07:33:14.389Z,-451.56
2018-12-19T07:34:14.491Z,-429.91
2018-12-19T07:35:14.580Z,-453.95
2018-12-19T07:36:14.720Z,-427.22
2018-12-19T07:37:14.712Z,-451.58
2018-12-19T07:38:14.786Z,-453.26
2018-12-19T07:39:14.877Z,-454.43
2018-12-19T07:40:14.975Z,-429.67
2018-12-19T07:41:15.045Z,-454.52
2018-12-19T07:42:15.131Z,-423.89
2018-12-19T07:43:15.177Z,-450.25
2018-12-19T07:44:15.299Z,-451.14
2018-12-19T07:45:15.337Z,-455.83
2018-12-19T07:46:19.807Z,-450.59
2018-12-19T07:47:15.496Z,-447.91
2018-12-19T07:48:15.575Z,-450.32
2018-12-19T07:49:15.631Z,-452.50
2018-12-19T07:50:15.739Z,-450.71
2018-12-19T07:51:15.814Z,-450.02
2018-12-19T07:52:15.933Z,-451.47
2018-12-19T07:53:16.024Z,-451.91
2018-12-19T07:54:16.053Z,-452.88
2018-12-19T07:55:16.131Z,-448.25
2018-12-19T07:56:16.219Z,-444.59
2018-12-19T07:57:16.286Z,-452.67
2018-12-19T07:58:16.391Z,-452.73
2018-12-19T07:59:16.437Z,-454.15
2018-12-19T08:00:16.561Z,-454.13
2018-12-19T08:01:17.444Z,-453.82
2018-12-19T08:02:16.669Z,-454.51
2018-12-19T08:03:16.782Z,-454.30
2018-12-19T08:04:16.823Z,-452.52
2018-12-19T08:05:16.920Z,-452.91
2018-12-19T08:06:16.962Z,-453.11
2018-12-19T08:07:17.085Z,-451.12
2018-12-19T08:08:17.146Z,-452.89
2018-12-19T08:09:17.290Z,-451.06
2018-12-19T08:10:17.295Z,-453.33
2018-12-19T08:11:17.336Z,-453.57
2018-12-19T08:12:17.446Z,-455.48
2018-12-19T08:13:17.530Z,-455.53
2018-12-19T08:14:17.587Z,-451.12
2018-12-19T08:15:17.916Z,-453.46
2018-12-19T08:16:17.737Z,-452.48
2018-12-19T08:17:17.906Z,-451.18
2018-12-19T08:18:17.901Z,-455.62
2018-12-19T08:19:17.966Z,-454.45
2018-12-19T08:20:18.059Z,-451.40
2018-12-19T08:21:18.116Z,-455.41
2018-12-19T08:22:18.198Z,-455.70
2018-12-19T08:23:18.273Z,-455.82
2018-12-19T08:24:18.349Z,-454.27
2018-12-19T08:25:18.499Z,-449.71
2018-12-19T08:26:19.336Z,-455.02
2018-12-19T08:27:18.589Z,-454.87
2018-12-19T08:28:18.644Z,-456.80
2018-12-19T08:29:18.700Z,-457.63
2018-12-19T08:30:18.812Z,-455.42
2018-12-19T08:31:18.875Z,-456.53
2018-12-19T08:32:18.969Z,-453.98
2018-12-19T08:33:19.113Z,-451.23
2018-12-19T08:34:19.133Z,-452.99
2018-12-19T08:35:19.197Z,-454.15
2018-12-19T08:36:19.282Z,-451.83
2018-12-19T08:37:19.340Z,-451.43
2018-12-19T08:38:19.461Z,-452.72
2018-12-19T08:39:19.498Z,-452.29
2018-12-19T08:40:19.565Z,-454.80
2018-12-19T08:41:19.678Z,-455.39
2018-12-19T08:42:19.822Z,-456.90
2018-12-19T08:43:19.830Z,-454.20
2018-12-19T08:44:19.861Z,-455.14
2018-12-19T08:45:19.959Z,-454.45
2018-12-19T08:46:20.048Z,-454.03
2018-12-19T08:47:20.122Z,-455.68
2018-12-19T08:48:20.256Z,-457.99
2018-12-19T08:49:20.286Z,-456.01
2018-12-19T08:50:20.461Z,-455.28
2018-12-19T08:51:20.450Z,-457.11
2018-12-19T08:52:20.534Z,-455.48
2018-12-19T08:53:20.659Z,-451.95
2018-12-19T08:54:20.692Z,-454.12
2018-12-19T08:55:20.744Z,-444.54
2018-12-19T08:56:20.850Z,-453.27
2018-12-19T08:57:20.950Z,-452.94
2018-12-19T08:58:21.135Z,-453.43
2018-12-19T08:59:21.079Z,-453.65
2018-12-19T09:00:21.166Z,-445.91
2018-12-19T09:01:21.240Z,-451.70
2018-12-19T09:02:21.324Z,-453.15
2018-12-19T09:03:21.424Z,-450.62
2018-12-19T09:04:25.792Z,-450.48
2018-12-19T09:05:21.564Z,-453.05
2018-12-19T09:06:21.695Z,-449.64
2018-12-19T09:07:21.679Z,-451.62
2018-12-19T09:08:21.796Z,-451.30
2018-12-19T09:09:21.867Z,-449.98
2018-12-19T09:10:21.937Z,-449.66
2018-12-19T09:11:22.038Z,-451.65
2018-12-19T09:12:22.148Z,-453.25
2018-12-19T09:13:22.181Z,-452.96
2018-12-19T09:14:22.313Z,-452.34
2018-12-19T09:15:27.495Z,-451.37
2018-12-19T09:16:23.441Z,-455.43
2018-12-19T09:17:22.522Z,-448.24
2018-12-19T09:18:22.588Z,-452.19
2018-12-19T09:19:22.658Z,-451.51
2018-12-19T09:20:22.754Z,-452.05
2018-12-19T09:21:22.850Z,-449.60
2018-12-19T09:22:22.932Z,-450.74
2018-12-19T09:23:23.093Z,-453.72
2018-12-19T09:24:23.063Z,-452.77
2018-12-19T09:25:23.141Z,-456.71
2018-12-19T09:26:23.236Z,-449.80
2018-12-19T09:27:23.297Z,-451.06
2018-12-19T09:28:23.383Z,-453.96
2018-12-19T09:29:23.457Z,-454.09
2018-12-19T09:30:23.530Z,-452.98
2018-12-19T09:31:23.745Z,-454.00
2018-12-19T09:32:23.698Z,-452.89
2018-12-19T09:33:27.364Z,-454.89
2018-12-19T09:34:23.833Z,-452.85
2018-12-19T09:35:23.918Z,-451.49
2018-12-19T09:36:24.026Z,-451.88
2018-12-19T09:37:24.088Z,-450.15
2018-12-19T09:38:24.180Z,-449.74
2018-12-19T09:39:24.286Z,-456.36
2018-12-19T09:40:24.285Z,-454.57
2018-12-19T09:41:24.403Z,-452.88
2018-12-19T09:42:24.465Z,-450.46
2018-12-19T09:43:24.556Z,-451.11
2018-12-19T09:44:24.634Z,-451.52
2018-12-19T09:45:24.696Z,-452.29
2018-12-19T09:46:24.772Z,-455.49
2018-12-19T09:47:24.906Z,-452.37
2018-12-19T09:48:24.901Z,-454.37
2018-12-19T09:49:24.988Z,-455.56
2018-12-19T09:50:25.076Z,-456.00
2018-12-19T09:51:25.173Z,-452.49
2018-12-19T09:52:25.228Z,-454.57
2018-12-19T09:53:25.309Z,-459.57
2018-12-19T09:54:25.654Z,-455.70
2018-12-19T09:55:25.516Z,-455.28
2018-12-19T09:56:25.636Z,-449.83
2018-12-19T09:57:25.713Z,-452.55
2018-12-19T09:58:25.806Z,-453.78
2018-12-19T09:59:25.913Z,-451.21
2018-12-19T10:00:26.005Z,-455.37
2018-12-19T10:01:26.086Z,-456.73
2018-12-19T10:02:26.163Z,-453.99
2018-12-19T10:03:26.210Z,-453.67
2018-12-19T10:04:26.462Z,-456.40
2018-12-19T10:05:26.393Z,-457.96
2018-12-19T10:06:26.485Z,-455.25
2018-12-19T10:07:26.558Z,-459.68
2018-12-19T10:08:26.616Z,-458.00
2018-12-19T10:09:26.736Z,-454.50
2018-12-19T10:10:26.825Z,-455.98
2018-12-19T10:11:26.897Z,-455.42
2018-12-19T10:12:27.054Z,-454.17
2018-12-19T10:13:27.021Z,-456.98
2018-12-19T10:14:27.103Z,-455.06
2018-12-19T10:15:27.177Z,-449.68
2018-12-19T10:16:27.276Z,-452.20
2018-12-19T10:17:27.356Z,-455.25
2018-12-19T10:18:27.414Z,-454.26
2018-12-19T10:19:27.508Z,-455.45
2018-12-19T10:20:27.583Z,-455.02
2018-12-19T10:21:27.645Z,-455.79
2018-12-19T10:22:27.732Z,-458.26
2018-12-19T10:23:27.790Z,-459.20
2018-12-19T10:24:27.883Z,-454.84
2018-12-19T10:25:27.939Z,-454.95
2018-12-19T10:26:28.017Z,-456.93
2018-12-19T10:27:28.114Z,-458.78
2018-12-19T10:28:28.228Z,-455.57
2018-12-19T10:29:28.283Z,-455.11
2018-12-19T10:30:28.349Z,-456.70
2018-12-19T10:31:28.427Z,-458.10
2018-12-19T10:32:28.522Z,-457.67
2018-12-19T10:33:28.602Z,-451.43
2018-12-19T10:34:28.691Z,-452.23
2018-12-19T10:35:28.749Z,-451.02
2018-12-19T10:36:28.855Z,-453.64
2018-12-19T10:37:29.042Z,-456.66
2018-12-19T10:38:28.984Z,-457.03
2018-12-19T10:39:29.076Z,-454.10
2018-12-19T10:40:29.135Z,-456.20
2018-12-19T10:41:29.231Z,-456.96
2018-12-19T10:42:29.288Z,-435.11
2018-12-19T10:43:29.352Z,-456.83
2018-12-19T10:44:29.457Z,-459.22
2018-12-19T10:45:29.640Z,-457.99
2018-12-19T10:46:29.626Z,-450.39
2018-12-19T10:47:29.672Z,-453.00
2018-12-19T10:48:29.743Z,-452.50
2018-12-19T10:49:29.848Z,-457.10
2018-12-19T10:50:29.907Z,-456.98
2018-12-19T10:51:29.998Z,-455.00
2018-12-19T10:52:30.072Z,-459.28
2018-12-19T10:53:30.170Z,-458.16
2018-12-19T10:54:30.215Z,-456.97
2018-12-19T10:55:30.286Z,-453.82
2018-12-19T10:56:30.370Z,-456.00
2018-12-19T10:57:30.440Z,-453.66
2018-12-19T10:58:30.515Z,-456.40
2018-12-19T10:59:30.595Z,-456.66
2018-12-19T11:00:30.671Z,-457.96
2018-12-19T11:01:30.804Z,-455.86
2018-12-19T11:02:30.833Z,-455.12
2018-12-19T11:03:30.986Z,-456.94
2018-12-19T11:04:31.002Z,-455.54
2018-12-19T11:05:31.044Z,-457.12
2018-12-19T11:06:31.153Z,-453.80
2018-12-19T11:07:31.242Z,-453.78
2018-12-19T11:08:31.300Z,-457.33
2018-12-19T11:09:31.451Z,-455.37
2018-12-19T11:10:31.504Z,-457.14
2018-12-19T11:11:32.443Z,-456.22
2018-12-19T11:12:31.619Z,-456.41
2018-12-19T11:13:31.688Z,-450.44
2018-12-19T11:14:31.779Z,-456.57
2018-12-19T11:15:31.841Z,-442.99
2018-12-19T11:16:31.927Z,-454.00
2018-12-19T11:17:32.038Z,-452.94
2018-12-19T11:18:32.196Z,-456.05
2018-12-19T11:19:32.185Z,-457.65
2018-12-19T11:20:32.244Z,-456.99
2018-12-19T11:21:32.475Z,-454.41
2018-12-19T11:22:32.415Z,-456.85
2018-12-19T11:23:32.473Z,-459.57
2018-12-19T11:24:32.566Z,-458.94
2018-12-19T11:25:32.626Z,-456.00
2018-12-19T11:26:32.813Z,-458.00
2018-12-19T11:27:32.800Z,-450.44
2018-12-19T11:28:32.861Z,-451.91
2018-12-19T11:29:32.948Z,-450.73
2018-12-19T11:30:33.018Z,-461.23
2018-12-19T11:31:33.478Z,-461.60
2018-12-19T11:32:33.400Z,-454.98
2018-12-19T11:33:33.250Z,-456.52
2018-12-19T11:34:33.420Z,-446.99
2018-12-19T11:35:33.403Z,-444.94
2018-12-19T11:36:33.496Z,-448.96
2018-12-19T11:37:33.605Z,-457.06
2018-12-19T11:38:33.628Z,-455.68
2018-12-19T11:39:33.734Z,-455.77
2018-12-19T11:40:33.798Z,-455.48
2018-12-19T11:41:38.991Z,-454.95
2018-12-19T11:42:35.029Z,-457.46
2018-12-19T11:43:34.005Z,-458.31
2018-12-19T11:44:34.088Z,-458.78
2018-12-19T11:45:34.171Z,-459.70
2018-12-19T11:46:34.484Z,-455.40
2018-12-19T11:47:34.372Z,-456.42
2018-12-19T11:48:34.409Z,-453.49
2018-12-19T11:49:34.504Z,-454.41
2018-12-19T11:50:34.571Z,-456.55
2018-12-19T11:51:34.683Z,-457.79
2018-12-19T11:52:34.752Z,-458.45
2018-12-19T11:53:34.793Z,-454.95
2018-12-19T11:54:34.925Z,-456.92
2018-12-19T11:55:34.926Z,-457.36
2018-12-19T11:56:35.047Z,-448.07
2018-12-19T11:57:35.132Z,-451.22
2018-12-19T11:58:35.189Z,-452.20
2018-12-19T11:59:35.378Z,-454.93
2018-12-19T12:00:35.394Z,-456.06
2018-12-19T12:01:41.150Z,-457.34
2018-12-19T12:02:36.513Z,-457.17
2018-12-19T12:03:35.568Z,-457.27
2018-12-19T12:04:35.644Z,-457.36
2018-12-19T12:05:35.739Z,-456.03
2018-12-19T12:06:35.812Z,-455.02